Time;durP1;ratioP1;P1;durP2;ratioP2;P2;SDS_P1;SDS_P2;PMS_P1;PMS_P2;Temp;Humidity;BMP_temperature;BMP_pressure;BME280_temperature;BME280_humidity;BME280_pressure;Samples;Min_cycle;Max_cycle;Signal;HPM_P1;HPM_P2
2023/01/16 00:03:47;;;;;;;5.35;1.02;;;;;;;;;;8251502;28;20155;-73
2023/01/16 00:07:47;;;;;;;6.45;1.02;;;;;;;;;;8240566;28;20021;-73
2023/01/16 00:11:47;;;;;;;9.15;1.63;;;;;;;;;;8241276;28;20169;-73
2023/01/16 00:15:48;;;;;;;4.00;1.08;;;;;;;;;;8253061;28;20065;-73
2023/01/16 00:19:48;;;;;;;4.40;1.20;;;;;;;;;;8251282;28;21107;-73
2023/01/16 00:23:49;;;;;;;3.10;1.00;;;;;;;;;;8252981;28;20037;-74
2023/01/16 00:27:49;;;;;;;2.67;0.80;;;;;;;;;;8253923;28;20650;-74
2023/01/16 00:31:49;;;;;;;5.03;1.17;;;;;;;;;;8234459;28;20034;-73
2023/01/16 00:35:50;;;;;;;4.30;0.85;;;;;;;;;;8252456;28;20064;-73
2023/01/16 00:39:54;;;;;;;4.47;1.10;;;;;;;;;;8250417;28;20071;-73
2023/01/16 00:43:56;;;;;;;2.60;0.80;;;;;;;;;;8232634;28;20030;-74
2023/01/16 00:47:58;;;;;;;3.25;0.88;;;;;;;;;;8251917;28;20061;-73
2023/01/16 00:51:58;;;;;;;2.88;0.93;;;;;;;;;;8253437;28;20090;-73
2023/01/16 00:55:58;;;;;;;3.35;1.08;;;;;;;;;;8255749;28;20943;-73
2023/01/16 00:59:58;;;;;;;4.25;1.40;;;;;;;;;;8259017;28;20065;-73
2023/01/16 01:03:59;;;;;;;4.10;0.88;;;;;;;;;;8238261;28;20061;-73
2023/01/16 01:07:59;;;;;;;2.60;1.10;;;;;;;;;;8256640;28;20087;-72
2023/01/16 01:11:59;;;;;;;2.90;0.90;;;;;;;;;;8256656;28;20502;-73
2023/01/16 01:15:59;;;;;;;2.15;1.00;;;;;;;;;;8256330;28;20038;-73
2023/01/16 01:19:59;;;;;;;3.30;0.80;;;;;;;;;;8255505;28;20025;-73
2023/01/16 01:24:00;;;;;;;1.38;0.82;;;;;;;;;;8258194;28;20029;-73
2023/01/16 01:28:00;;;;;;;2.05;0.93;;;;;;;;;;8257096;28;20025;-73
2023/01/16 01:32:01;;;;;;;4.47;1.10;;;;;;;;;;8254980;28;20038;-73
2023/01/16 01:36:02;;;;;;;3.80;1.00;;;;;;;;;;8238390;28;20026;-73
2023/01/16 01:40:04;;;;;;;3.63;0.98;;;;;;;;;;8257897;28;20108;-73
2023/01/16 01:44:23;;;;;;;2.75;0.90;;;;;;;;;;8258697;28;20033;-73
2023/01/16 01:48:26;;;;;;;3.50;0.98;;;;;;;;;;8251427;28;20038;-73
2023/01/16 01:52:27;;;;;;;4.15;0.85;;;;;;;;;;8238850;28;20026;-73
2023/01/16 01:56:28;;;;;;;3.67;0.80;;;;;;;;;;8257132;28;20806;-73
2023/01/16 02:00:28;;;;;;;3.28;1.00;;;;;;;;;;8255292;28;20069;-73
2023/01/16 02:04:30;;;;;;;2.85;0.95;;;;;;;;;;8256307;28;20038;-73
2023/01/16 02:08:32;;;;;;;3.65;1.08;;;;;;;;;;8251045;28;20748;-73
2023/01/16 02:12:33;;;;;;;5.28;1.10;;;;;;;;;;8238385;28;20032;-73
2023/01/16 02:21:02;;;;;;;5.55;1.10;;;;;;;;;;8255112;28;21208;-73
2023/01/16 02:25:08;;;;;;;2.13;0.88;;;;;;;;;;8257908;28;20018;-73
2023/01/16 02:29:08;;;;;;;5.78;1.20;;;;;;;;;;8246515;28;20056;-73
2023/01/16 02:33:16;;;;;;;5.53;1.00;;;;;;;;;;8255904;28;20038;-73
2023/01/16 02:37:29;;;;;;;2.80;1.20;;;;;;;;;;8256875;28;20717;-73
2023/01/16 02:41:41;;;;;;;1.60;0.90;;;;;;;;;;8252606;28;20021;-73
2023/01/16 02:45:45;;;;;;;2.65;0.77;;;;;;;;;;8253691;28;20185;-73
2023/01/16 02:50:08;;;;;;;2.33;1.02;;;;;;;;;;8254723;28;20025;-73
2023/01/16 02:54:20;;;;;;;3.08;0.95;;;;;;;;;;8245620;28;20052;-73
2023/01/16 02:58:21;;;;;;;1.70;1.13;;;;;;;;;;8256189;28;20225;-73
2023/01/16 03:02:21;;;;;;;4.57;1.00;;;;;;;;;;8254061;28;20193;-73
2023/01/16 03:06:30;;;;;;;3.30;0.90;;;;;;;;;;8254045;28;20137;-73
2023/01/16 03:10:47;;;;;;;1.48;0.77;;;;;;;;;;8256025;28;20088;-73
2023/01/16 03:14:52;;;;;;;2.83;0.90;;;;;;;;;;8255126;28;20029;-73
2023/01/16 03:19:10;;;;;;;3.58;0.90;;;;;;;;;;8254097;28;20034;-72
2023/01/16 03:23:13;;;;;;;5.28;1.15;;;;;;;;;;8254503;28;20900;-73
2023/01/16 03:27:19;;;;;;;2.53;0.80;;;;;;;;;;8239978;28;20030;-73
2023/01/16 03:31:26;;;;;;;5.80;1.10;;;;;;;;;;8234878;28;20838;-73
2023/01/16 03:35:32;;;;;;;3.83;0.80;;;;;;;;;;8236343;28;20144;-73
2023/01/16 03:39:36;;;;;;;2.85;0.80;;;;;;;;;;8253169;28;20097;-73
2023/01/16 03:43:37;;;;;;;4.78;1.20;;;;;;;;;;8235143;28;20053;-73
2023/01/16 03:47:44;;;;;;;2.55;1.00;;;;;;;;;;8253226;28;20030;-73
2023/01/16 03:51:58;;;;;;;2.13;0.80;;;;;;;;;;8234608;28;20048;-73
2023/01/16 03:56:13;;;;;;;1.58;0.80;;;;;;;;;;8254437;28;20041;-73
2023/01/16 04:00:13;;;;;;;2.22;0.93;;;;;;;;;;8232078;28;20971;-73
2023/01/16 04:04:15;;;;;;;2.50;0.82;;;;;;;;;;8252430;28;20025;-73
2023/01/16 04:08:22;;;;;;;1.90;0.75;;;;;;;;;;8235110;28;20038;-73
2023/01/16 04:12:24;;;;;;;1.98;0.70;;;;;;;;;;8254862;28;20940;-73
2023/01/16 04:16:24;;;;;;;3.15;1.00;;;;;;;;;;8252953;28;20034;-73
2023/01/16 04:20:25;;;;;;;1.55;0.82;;;;;;;;;;8252056;28;20062;-73
2023/01/16 04:24:25;;;;;;;3.13;0.90;;;;;;;;;;8254934;28;20875;-73
2023/01/16 04:28:26;;;;;;;1.98;0.90;;;;;;;;;;8251244;28;20024;-72
2023/01/16 04:32:26;;;;;;;2.05;0.90;;;;;;;;;;8255909;28;20038;-72
2023/01/16 04:36:26;;;;;;;3.00;0.90;;;;;;;;;;8244120;28;20026;-73
2023/01/16 04:40:26;;;;;;;3.10;0.80;;;;;;;;;;8257999;28;20109;-73
2023/01/16 04:44:26;;;;;;;4.93;1.30;;;;;;;;;;8256363;28;20022;-73
2023/01/16 04:48:26;;;;;;;14.70;7.70;;;;;;;;;;8258619;28;20034;-73
2023/01/16 04:52:27;;;;;;;12.18;6.70;;;;;;;;;;8259578;28;20136;-73
2023/01/16 04:56:27;;;;;;;9.93;5.03;;;;;;;;;;8257376;28;20036;-73
2023/01/16 05:00:27;;;;;;;3.30;1.80;;;;;;;;;;8257417;28;20923;-74
2023/01/16 05:04:27;;;;;;;2.50;1.30;;;;;;;;;;8255912;28;20439;-73
2023/01/16 05:08:28;;;;;;;3.50;1.02;;;;;;;;;;8257939;28;20125;-73
2023/01/16 05:12:28;;;;;;;1.80;0.98;;;;;;;;;;8257101;28;20676;-73
2023/01/16 05:16:28;;;;;;;2.65;1.10;;;;;;;;;;8255924;28;20415;-73
2023/01/16 05:20:29;;;;;;;1.52;0.80;;;;;;;;;;8256962;28;20837;-73
2023/01/16 05:24:29;;;;;;;2.40;0.90;;;;;;;;;;8258801;28;20021;-73
2023/01/16 05:28:29;;;;;;;4.45;1.05;;;;;;;;;;8256517;28;20029;-73
2023/01/16 05:32:29;;;;;;;1.38;1.10;;;;;;;;;;8257382;28;20107;-73
2023/01/16 05:36:29;;;;;;;1.10;0.95;;;;;;;;;;8256418;28;20112;-73
2023/01/16 05:40:30;;;;;;;4.38;1.33;;;;;;;;;;8256692;28;20588;-73
2023/01/16 05:44:30;;;;;;;4.32;1.00;;;;;;;;;;8258932;28;20133;-73
2023/01/16 05:48:35;;;;;;;2.45;1.30;;;;;;;;;;8252204;28;20129;-73
2023/01/16 05:52:35;;;;;;;1.38;0.98;;;;;;;;;;8258166;28;20396;-73
2023/01/16 05:56:35;;;;;;;3.33;1.20;;;;;;;;;;8256611;28;20030;-73
2023/01/16 06:00:36;;;;;;;2.60;1.02;;;;;;;;;;8256505;28;20037;-73
2023/01/16 06:04:36;;;;;;;2.95;1.50;;;;;;;;;;8256592;28;20072;-73
2023/01/16 06:08:36;;;;;;;4.85;1.70;;;;;;;;;;8236899;28;20462;-73
2023/01/16 06:12:37;;;;;;;2.83;1.42;;;;;;;;;;8253397;28;20030;-73
2023/01/16 06:16:37;;;;;;;4.20;1.48;;;;;;;;;;8256260;28;20374;-73
2023/01/16 06:20:37;;;;;;;4.47;1.50;;;;;;;;;;8254273;28;20889;-73
2023/01/16 06:24:37;;;;;;;3.63;1.95;;;;;;;;;;8255137;28;20052;-73
2023/01/16 06:28:38;;;;;;;4.22;1.73;;;;;;;;;;8256775;28;20553;-73
2023/01/16 06:32:38;;;;;;;7.85;2.20;;;;;;;;;;8239913;28;20038;-73
2023/01/16 06:36:38;;;;;;;10.30;2.13;;;;;;;;;;8256793;28;20026;-74
2023/01/16 06:40:39;;;;;;;4.35;1.60;;;;;;;;;;8252351;28;20446;-73
2023/01/16 06:44:39;;;;;;;2.08;1.38;;;;;;;;;;8255833;28;20041;-73
2023/01/16 06:48:41;;;;;;;9.07;5.53;;;;;;;;;;8236424;28;20030;-72
2023/01/16 06:52:41;;;;;;;3.47;1.90;;;;;;;;;;8255235;28;20099;-73
2023/01/16 06:56:41;;;;;;;4.90;1.80;;;;;;;;;;8255836;28;20037;-73
2023/01/16 07:00:41;;;;;;;5.80;1.75;;;;;;;;;;8254854;28;20642;-73
2023/01/16 07:04:41;;;;;;;5.93;1.60;;;;;;;;;;8256259;28;20520;-73
2023/01/16 07:08:43;;;;;;;2.08;1.17;;;;;;;;;;8254209;28;20029;-72
2023/01/16 07:12:43;;;;;;;7.45;1.80;;;;;;;;;;8249275;28;20037;-72
2023/01/16 07:25:26;;;;;;;3.60;1.40;;;;;;;;;;8254507;28;20729;-73
2023/01/16 07:29:28;;;;;;;6.55;1.60;;;;;;;;;;8250875;28;20685;-71
2023/01/16 07:33:28;;;;;;;2.92;1.20;;;;;;;;;;8253815;28;20034;-72
2023/01/16 07:37:28;;;;;;;3.93;1.63;;;;;;;;;;8252735;28;20025;-72
2023/01/16 07:41:28;;;;;;;5.82;1.65;;;;;;;;;;8232817;28;20276;-72
2023/01/16 07:45:28;;;;;;;4.05;1.63;;;;;;;;;;8250683;28;20140;-72
2023/01/16 07:49:28;;;;;;;4.45;1.33;;;;;;;;;;8253541;28;20645;-72
2023/01/16 07:53:29;;;;;;;3.67;1.42;;;;;;;;;;8255880;28;20454;-72
2023/01/16 07:57:29;;;;;;;5.03;1.30;;;;;;;;;;8240509;28;20097;-72
2023/01/16 08:01:29;;;;;;;3.17;1.30;;;;;;;;;;8253560;28;20042;-72
2023/01/16 08:05:30;;;;;;;4.95;0.95;;;;;;;;;;8254413;28;20056;-72
2023/01/16 08:09:30;;;;;;;4.78;1.17;;;;;;;;;;8254921;28;20017;-72
2023/01/16 08:13:40;;;;;;;4.53;1.60;;;;;;;;;;8252377;28;20761;-72
2023/01/16 08:17:40;;;;;;;3.15;1.10;;;;;;;;;;8253514;28;21003;-72
2023/01/16 08:21:41;;;;;;;5.40;1.35;;;;;;;;;;8253225;28;20105;-72
2023/01/16 08:25:41;;;;;;;3.22;1.55;;;;;;;;;;8254441;28;20014;-72
2023/01/16 08:29:41;;;;;;;2.50;1.20;;;;;;;;;;8232858;28;20052;-72
2023/01/16 08:33:42;;;;;;;2.67;1.00;;;;;;;;;;8253009;28;20034;-72
2023/01/16 08:37:47;;;;;;;4.85;1.50;;;;;;;;;;8254819;28;20029;-72
2023/01/16 08:54:58;;;;;;;3.53;1.30;;;;;;;;;;8254726;28;20121;-73
2023/01/16 08:58:58;;;;;;;3.83;1.45;;;;;;;;;;8234640;28;20045;-72
2023/01/16 09:02:59;;;;;;;3.63;1.35;;;;;;;;;;8250531;28;20034;-72
2023/01/16 09:06:59;;;;;;;4.15;1.33;;;;;;;;;;8252634;28;20036;-73
2023/01/16 09:15:18;;;;;;;3.33;1.77;;;;;;;;;;8253056;28;20726;-72
2023/01/16 09:19:18;;;;;;;3.95;1.60;;;;;;;;;;8257350;28;20054;-73
2023/01/16 09:23:18;;;;;;;4.53;1.58;;;;;;;;;;8258409;28;20028;-73
2023/01/16 09:27:19;;;;;;;4.32;1.10;;;;;;;;;;8257007;28;20417;-73
2023/01/16 09:31:19;;;;;;;4.68;1.10;;;;;;;;;;8259304;28;20776;-73
2023/01/16 09:35:19;;;;;;;3.33;1.23;;;;;;;;;;8259192;28;20395;-73
2023/01/16 09:39:19;;;;;;;3.78;1.63;;;;;;;;;;8255747;28;20030;-73
2023/01/16 09:43:37;;;;;;;3.35;1.73;;;;;;;;;;8256545;28;20026;-73
2023/01/16 09:47:39;;;;;;;0.80;0.80;;;;;;;;;;8255231;28;20092;-72
2023/01/16 09:51:42;;;;;;;3.42;1.60;;;;;;;;;;8259145;28;20064;-73
2023/01/16 10:00:04;;;;;;;10.02;3.95;;;;;;;;;;8255395;28;20429;-73
2023/01/16 10:04:17;;;;;;;2.67;1.25;;;;;;;;;;8255937;28;20022;-73
2023/01/16 10:08:36;;;;;;;4.60;2.17;;;;;;;;;;8257273;28;20036;-73
2023/01/16 10:12:39;;;;;;;4.95;3.00;;;;;;;;;;8258229;28;20029;-73
2023/01/16 10:16:42;;;;;;;5.85;3.28;;;;;;;;;;8237055;28;20050;-73
2023/01/16 10:20:43;;;;;;;11.38;4.97;;;;;;;;;;8237383;28;20036;-72
2023/01/16 10:24:54;;;;;;;6.22;2.42;;;;;;;;;;8258882;28;20033;-72
2023/01/16 10:28:55;;;;;;;4.38;2.78;;;;;;;;;;8255412;28;20140;-72
2023/01/16 10:33:14;;;;;;;6.38;2.90;;;;;;;;;;8245015;28;20935;-72
2023/01/16 10:37:14;;;;;;;5.10;2.83;;;;;;;;;;8252922;28;20421;-72
2023/01/16 10:49:58;;;;;;;4.88;1.70;;;;;;;;;;8256425;28;20100;-72
2023/01/16 10:53:58;;;;;;;4.38;1.45;;;;;;;;;;8256084;28;20033;-72
2023/01/16 10:58:02;;;;;;;2.90;1.00;;;;;;;;;;8236563;28;20045;-72
2023/01/16 11:02:08;;;;;;;4.47;1.70;;;;;;;;;;8255721;28;20034;-73
2023/01/16 11:06:08;;;;;;;5.07;1.38;;;;;;;;;;8252193;28;20056;-72
2023/01/16 11:10:14;;;;;;;2.63;1.60;;;;;;;;;;8255431;28;20037;-72
2023/01/16 11:18:38;;;;;;;3.00;1.48;;;;;;;;;;8253171;28;20568;-72
2023/01/16 11:22:39;;;;;;;2.72;1.38;;;;;;;;;;8256708;28;20025;-71
2023/01/16 11:26:39;;;;;;;2.22;1.42;;;;;;;;;;8253447;28;20014;-72
2023/01/16 11:30:42;;;;;;;3.80;1.70;;;;;;;;;;8253517;28;20036;-72
2023/01/16 11:34:47;;;;;;;3.05;1.40;;;;;;;;;;8236145;28;20021;-72
2023/01/16 11:38:48;;;;;;;4.90;1.75;;;;;;;;;;8252069;28;20038;-72
2023/01/16 11:47:14;;;;;;;5.55;2.10;;;;;;;;;;8254094;28;20045;-72
2023/01/16 11:51:16;;;;;;;2.58;1.77;;;;;;;;;;8252077;28;20486;-72
2023/01/16 11:55:16;;;;;;;2.75;1.48;;;;;;;;;;8254379;28;20068;-72
2023/01/16 11:59:35;;;;;;;3.38;2.13;;;;;;;;;;8253902;28;20026;-72
2023/01/16 12:03:55;;;;;;;2.30;1.48;;;;;;;;;;8250883;28;20048;-72
2023/01/16 12:07:58;;;;;;;4.28;1.90;;;;;;;;;;8249503;28;20877;-73
2023/01/16 12:16:33;;;;;;;2.53;1.55;;;;;;;;;;8251878;28;20052;-73
2023/01/16 12:20:34;;;;;;;1.00;1.00;;;;;;;;;;8245480;28;20144;-72
2023/01/16 12:24:41;;;;;;;4.50;2.75;;;;;;;;;;8246224;28;20056;-72
2023/01/16 12:29:00;;;;;;;5.75;3.53;;;;;;;;;;8253423;28;20802;-73
2023/01/16 12:33:13;;;;;;;7.10;3.22;;;;;;;;;;8249551;28;20956;-73
2023/01/16 12:37:32;;;;;;;3.83;1.98;;;;;;;;;;8252532;28;20562;-73
2023/01/16 12:46:06;;;;;;;14.85;5.40;;;;;;;;;;8248595;28;20072;-73
2023/01/16 12:50:26;;;;;;;3.43;2.00;;;;;;;;;;8250684;28;20616;-73
2023/01/16 12:54:39;;;;;;;5.85;2.58;;;;;;;;;;8202829;28;20065;-73
2023/01/16 12:58:42;;;;;;;1.30;1.17;;;;;;;;;;8258705;28;20038;-73
2023/01/16 13:02:47;;;;;;;1.45;0.90;;;;;;;;;;8253324;28;20988;-73
2023/01/16 13:06:50;;;;;;;0.95;0.73;;;;;;;;;;8255869;28;20029;-72
2023/01/16 13:15:12;;;;;;;1.50;0.70;;;;;;;;;;8255197;28;20092;-73
2023/01/16 13:19:20;;;;;;;0.50;0.50;;;;;;;;;;8255431;28;20026;-73
2023/01/16 13:23:23;;;;;;;0.60;0.50;;;;;;;;;;8258643;28;20032;-73
2023/01/16 13:27:44;;;;;;;1.02;0.50;;;;;;;;;;8245834;28;20539;-73
2023/01/16 13:31:44;;;;;;;1.23;0.50;;;;;;;;;;8258766;28;20399;-73
2023/01/16 13:35:48;;;;;;;1.20;0.73;;;;;;;;;;8255821;28;20033;-73
2023/01/16 13:40:08;;;;;;;0.77;0.70;;;;;;;;;;8248717;28;20037;-73
2023/01/16 13:48:34;;;;;;;1.67;1.38;;;;;;;;;;8250508;28;20088;-73
2023/01/16 13:52:34;;;;;;;2.45;0.90;;;;;;;;;;8251213;28;20036;-73
2023/01/16 13:56:40;;;;;;;1.58;0.82;;;;;;;;;;8256617;28;20113;-73
2023/01/16 14:00:41;;;;;;;1.77;1.20;;;;;;;;;;8242995;28;20112;-73
2023/01/16 14:04:41;;;;;;;4.05;2.40;;;;;;;;;;8251655;28;20030;-73
2023/01/16 14:09:04;;;;;;;2.50;1.95;;;;;;;;;;8256314;28;20028;-73
2023/01/16 14:13:28;;;;;;;6.38;2.85;;;;;;;;;;8256241;28;20125;-73
2023/01/16 14:17:30;;;;;;;1.70;1.25;;;;;;;;;;8254184;28;21006;-73
2023/01/16 14:21:36;;;;;;;0.98;0.93;;;;;;;;;;8254823;28;20028;-73
2023/01/16 14:25:37;;;;;;;1.30;1.20;;;;;;;;;;8234344;28;20026;-73
2023/01/16 14:29:45;;;;;;;1.80;0.90;;;;;;;;;;8255376;28;20041;-73
2023/01/16 14:33:46;;;;;;;1.17;1.00;;;;;;;;;;8238573;28;20065;-73
2023/01/16 14:37:54;;;;;;;2.38;1.48;;;;;;;;;;8232027;28;20044;-73
2023/01/16 14:55:13;;;;;;;3.63;1.90;;;;;;;;;;8255977;28;20040;-72
2023/01/16 14:59:15;;;;;;;5.70;2.85;;;;;;;;;;8236727;28;20021;-72
2023/01/16 15:03:26;;;;;;;1.75;1.20;;;;;;;;;;8255618;28;20064;-72
2023/01/16 15:07:35;;;;;;;2.13;1.70;;;;;;;;;;8234355;28;20132;-72
2023/01/16 15:11:45;;;;;;;0.80;0.80;;;;;;;;;;8252351;28;20335;-73
2023/01/16 15:15:50;;;;;;;1.05;0.98;;;;;;;;;;8232547;28;20703;-73
2023/01/16 15:24:29;;;;;;;1.10;1.00;;;;;;;;;;8252191;28;20028;-73
2023/01/16 15:28:51;;;;;;;1.30;0.70;;;;;;;;;;8256608;28;20021;-73
2023/01/16 15:32:55;;;;;;;1.15;0.60;;;;;;;;;;8253518;28;20127;-73
2023/01/16 15:36:56;;;;;;;0.50;0.50;;;;;;;;;;8255684;28;20078;-73
2023/01/16 15:40:57;;;;;;;0.50;0.50;;;;;;;;;;8254161;28;20482;-73
2023/01/16 15:49:23;;;;;;;0.57;0.40;;;;;;;;;;8253321;28;20041;-73
2023/01/16 15:53:24;;;;;;;0.57;0.40;;;;;;;;;;8252778;28;20030;-73
2023/01/16 15:57:25;;;;;;;0.40;0.40;;;;;;;;;;8252209;28;20026;-73
2023/01/16 16:01:30;;;;;;;0.52;0.52;;;;;;;;;;8253156;28;20030;-73
2023/01/16 16:05:31;;;;;;;0.43;0.43;;;;;;;;;;8258158;28;20029;-75
2023/01/16 16:09:31;;;;;;;0.40;0.40;;;;;;;;;;8253439;28;20135;-73
2023/01/16 16:13:32;;;;;;;0.40;0.40;;;;;;;;;;8252509;28;20022;-72
2023/01/16 16:26:14;;;;;;;1.25;0.40;;;;;;;;;;8252296;28;20029;-73
2023/01/16 16:30:25;;;;;;;0.50;0.50;;;;;;;;;;8257209;28;20029;-73
2023/01/16 16:34:26;;;;;;;0.47;0.47;;;;;;;;;;8259878;28;20533;-73
2023/01/16 16:38:32;;;;;;;0.47;0.47;;;;;;;;;;8257795;28;20070;-73
2023/01/16 16:42:33;;;;;;;0.40;0.40;;;;;;;;;;8256681;28;20018;-73
2023/01/16 16:46:38;;;;;;;0.40;0.40;;;;;;;;;;8260201;28;20038;-73
2023/01/16 16:50:38;;;;;;;0.30;0.30;;;;;;;;;;8237850;28;20091;-73
2023/01/16 16:54:40;;;;;;;0.40;0.40;;;;;;;;;;8260884;28;20573;-73
2023/01/16 16:58:45;;;;;;;0.40;0.40;;;;;;;;;;8238948;28;20284;-74
2023/01/16 17:02:47;;;;;;;0.30;0.30;;;;;;;;;;8258601;28;20034;-73
2023/01/16 17:06:50;;;;;;;0.40;0.40;;;;;;;;;;8260140;28;20037;-74
2023/01/16 17:10:51;;;;;;;0.40;0.40;;;;;;;;;;8259319;28;20025;-73
2023/01/16 17:14:51;;;;;;;0.40;0.40;;;;;;;;;;8258970;28;20121;-73
2023/01/16 17:18:58;;;;;;;0.40;0.40;;;;;;;;;;8255740;28;20034;-73
2023/01/16 17:22:59;;;;;;;0.40;0.40;;;;;;;;;;8255761;28;20018;-73
2023/01/16 17:27:02;;;;;;;0.30;0.30;;;;;;;;;;8259211;28;20522;-73
2023/01/16 17:31:02;;;;;;;0.57;0.40;;;;;;;;;;8256333;28;20278;-73
2023/01/16 17:35:02;;;;;;;0.40;0.40;;;;;;;;;;8258688;28;20022;-73
2023/01/16 17:39:03;;;;;;;0.70;0.70;;;;;;;;;;8258335;28;20546;-74
2023/01/16 17:47:22;;;;;;;0.60;0.60;;;;;;;;;;8257767;28;20041;-73
2023/01/16 17:51:23;;;;;;;1.73;1.57;;;;;;;;;;8258243;28;20155;-73
2023/01/16 17:59:42;;;;;;;0.40;0.40;;;;;;;;;;8257181;28;20041;-73
2023/01/16 18:03:47;;;;;;;0.40;0.40;;;;;;;;;;8256212;28;20038;-73
2023/01/16 18:07:48;;;;;;;0.60;0.60;;;;;;;;;;8257021;28;20042;-74
2023/01/16 18:20:29;;;;;;;0.40;0.40;;;;;;;;;;8255211;28;20128;-73
2023/01/16 18:24:30;;;;;;;0.30;0.30;;;;;;;;;;8251101;28;20021;-73
2023/01/16 18:28:30;;;;;;;0.30;0.30;;;;;;;;;;8233355;28;20119;-73
2023/01/16 18:32:32;;;;;;;0.40;0.40;;;;;;;;;;8252618;28;20045;-74
2023/01/16 18:36:33;;;;;;;0.30;0.30;;;;;;;;;;8236016;28;20284;-73
2023/01/16 19:02:13;;;;;;;0.50;0.50;;;;;;;;;;8252221;28;20481;-74
2023/01/16 19:06:15;;;;;;;0.68;0.68;;;;;;;;;;8254343;28;20061;-73
2023/01/16 19:10:19;;;;;;;0.60;0.60;;;;;;;;;;8249973;28;20022;-73
2023/01/16 19:14:19;;;;;;;;;;;;;;;;;;8252087;28;20860;-73
2023/01/16 19:18:19;;;;;;;1.00;0.68;;;;;;;;;;8249840;28;19921;-73
2023/01/16 19:22:20;;;;;;;1.13;0.82;;;;;;;;;;8252412;28;20029;-73
2023/01/16 19:26:20;;;;;;;0.70;0.70;;;;;;;;;;8235551;28;20030;-73
2023/01/16 19:30:20;;;;;;;0.82;0.82;;;;;;;;;;8252924;28;20572;-73
2023/01/16 19:34:21;;;;;;;1.60;0.90;;;;;;;;;;8251985;28;20079;-73
2023/01/16 19:38:21;;;;;;;0.93;0.80;;;;;;;;;;8252541;28;20084;-73
2023/01/16 19:46:43;;;;;;;0.90;0.90;;;;;;;;;;8253686;28;20157;-73
2023/01/16 19:50:43;;;;;;;3.15;0.80;;;;;;;;;;8233643;28;20041;-73
2023/01/16 19:54:43;;;;;;;1.58;0.80;;;;;;;;;;8252934;28;20028;-73
2023/01/16 19:58:43;;;;;;;1.38;0.90;;;;;;;;;;8252685;28;20889;-73
2023/01/16 20:02:43;;;;;;;1.40;1.02;;;;;;;;;;8251323;28;20045;-73
2023/01/16 20:06:44;;;;;;;1.42;0.90;;;;;;;;;;8252474;28;20030;-73
2023/01/16 20:10:44;;;;;;;2.70;0.90;;;;;;;;;;8252479;28;20026;-73
2023/01/16 20:14:44;;;;;;;2.63;1.27;;;;;;;;;;8247575;28;20044;-73
2023/01/16 20:18:44;;;;;;;1.83;0.90;;;;;;;;;;8249776;28;20041;-73
2023/01/16 20:22:46;;;;;;;1.83;1.13;;;;;;;;;;8222610;28;20264;-73
2023/01/16 20:26:47;;;;;;;1.25;1.15;;;;;;;;;;8219807;28;20030;-73
2023/01/16 20:30:48;;;;;;;2.35;1.30;;;;;;;;;;8247941;28;20215;-73
2023/01/16 20:34:48;;;;;;;1.70;1.20;;;;;;;;;;8235543;28;20078;-72
2023/01/16 20:38:48;;;;;;;3.00;1.20;;;;;;;;;;8248862;28;20184;-72
2023/01/16 20:47:09;;;;;;;2.38;1.35;;;;;;;;;;8246079;28;21080;-73
2023/01/16 20:51:09;;;;;;;2.78;1.70;;;;;;;;;;8247474;28;20034;-73
2023/01/16 20:55:12;;;;;;;1.92;1.55;;;;;;;;;;8248692;28;20110;-74
2023/01/16 20:59:13;;;;;;;2.30;1.52;;;;;;;;;;8231082;28;20041;-73
2023/01/16 21:03:14;;;;;;;2.00;1.60;;;;;;;;;;8229809;28;20034;-74
2023/01/16 21:07:14;;;;;;;4.68;1.52;;;;;;;;;;8248987;28;20037;-73
2023/01/16 21:15:33;;;;;;;2.05;1.55;;;;;;;;;;8246190;28;20284;-72
2023/01/16 21:23:53;;;;;;;5.82;1.95;;;;;;;;;;8253921;28;20068;-73
2023/01/16 21:27:55;;;;;;;3.55;1.48;;;;;;;;;;8252070;28;20022;-73
2023/01/16 21:31:55;;;;;;;3.60;1.30;;;;;;;;;;8252455;28;20042;-72
2023/01/16 21:35:55;;;;;;;2.13;1.30;;;;;;;;;;8251643;28;20136;-72
2023/01/16 21:39:56;;;;;;;1.52;1.40;;;;;;;;;;8232571;28;20577;-73
2023/01/16 21:48:16;;;;;;;3.65;1.80;;;;;;;;;;8252674;28;20108;-73
2023/01/16 21:52:16;;;;;;;3.72;1.98;;;;;;;;;;8254565;28;20053;-73
2023/01/16 21:56:17;;;;;;;2.13;1.45;;;;;;;;;;8252421;28;20034;-73
2023/01/16 22:00:18;;;;;;;4.32;1.90;;;;;;;;;;8251485;28;20789;-73
2023/01/16 22:04:20;;;;;;;2.25;1.60;;;;;;;;;;8236440;28;20081;-73
2023/01/16 22:08:20;;;;;;;5.75;2.15;;;;;;;;;;8228670;28;20041;-73
2023/01/16 22:24:59;;;;;;;2.50;1.70;;;;;;;;;;8250992;28;20030;-73
2023/01/16 22:29:00;;;;;;;5.43;2.28;;;;;;;;;;8250510;28;20032;-73
2023/01/16 22:33:01;;;;;;;3.42;1.92;;;;;;;;;;8251095;28;20044;-73
2023/01/16 22:37:01;;;;;;;4.73;2.17;;;;;;;;;;8249772;28;20148;-73
2023/01/16 22:41:01;;;;;;;6.30;2.92;;;;;;;;;;8248740;28;20268;-73
2023/01/16 22:49:28;;;;;;;3.67;2.35;;;;;;;;;;8226288;28;20045;-74
2023/01/16 22:53:28;;;;;;;3.17;2.13;;;;;;;;;;8233535;28;20030;-73
2023/01/16 22:57:29;;;;;;;4.55;2.50;;;;;;;;;;8250746;28;20329;-73
2023/01/16 23:01:29;;;;;;;4.27;2.03;;;;;;;;;;8250419;28;20092;-73
2023/01/16 23:05:29;;;;;;;2.38;1.90;;;;;;;;;;8251779;28;20355;-73
2023/01/16 23:09:30;;;;;;;3.47;2.25;;;;;;;;;;8248848;28;20038;-73
2023/01/16 23:13:30;;;;;;;3.33;2.10;;;;;;;;;;8249166;28;20030;-73
2023/01/16 23:17:30;;;;;;;4.07;1.60;;;;;;;;;;8248843;28;20130;-73
2023/01/16 23:21:33;;;;;;;4.28;1.85;;;;;;;;;;8249257;28;20136;-73
2023/01/16 23:25:33;;;;;;;4.15;2.00;;;;;;;;;;8249110;28;20032;-73
2023/01/16 23:29:34;;;;;;;5.82;1.83;;;;;;;;;;8219103;28;20053;-73
2023/01/16 23:33:34;;;;;;;4.57;1.95;;;;;;;;;;8249679;28;20041;-73
2023/01/16 23:37:34;;;;;;;3.17;1.52;;;;;;;;;;8251794;28;20072;-73
2023/01/16 23:45:53;;;;;;;8.02;2.20;;;;;;;;;;8253676;28;21102;-73
2023/01/16 23:49:54;;;;;;;7.93;2.05;;;;;;;;;;8251689;28;20710;-73
2023/01/16 23:53:54;;;;;;;4.45;1.67;;;;;;;;;;8253049;28;20276;-73
2023/01/16 23:57:54;;;;;;;5.18;2.17;;;;;;;;;;8251565;28;20034;-73
